Time;durP1;ratioP1;P1;durP2;ratioP2;P2;SDS_P1;SDS_P2;PMS_P1;PMS_P2;Temp;Humidity;BMP_temperature;BMP_pressure;BME280_temperature;BME280_humidity;BME280_pressure;Samples;Min_cycle;Max_cycle;Signal;HPM_P1;HPM_P2
2021/05/08 11:10:44;;;;;;;;;;;;;;;;;;5024200;27;20284;-65
2021/05/08 11:13:10;;;;;;;;;;;;;;;;;;5062492;28;19942;-64
2021/05/08 11:16:28;;;;;;;;;;;;;;;;;;4986173;28;65843;-69
2021/05/08 11:18:54;;;;;;;;;;;;;;;;;;4985209;28;19915;-69
2021/05/08 11:21:21;;;;;;;;;;;;;;;;;;4970141;28;20301;-69
2021/05/08 11:23:47;;;;;;;;;;;;;;;;;;4969566;28;20378;-70
2021/05/08 11:26:13;;;;;;;;;;;;;;;;;;4988895;23;19914;-83
2021/05/08 11:28:38;;;;;;;;;;;;;;;;;;4972995;28;19919;-83
2021/05/08 11:31:04;;;;;;;;;;;;;;;;;;4970151;28;19914;-84
2021/05/08 11:33:30;;;;;;;;;;;;;;;;;;4975421;28;19911;-83
2021/05/08 11:35:56;;;;;;;;;;;;;;;;;;4976245;28;19953;-83
2021/05/08 11:38:22;;;;;;;;;;;;;;;;;;4972112;28;20284;-84
2021/05/08 11:40:48;;;;;;;;;;;;;;;;;;4977738;28;20006;-83
2021/05/08 11:43:14;;;;;;;;;;;;;;;;;;4975998;28;19915;-82
2021/05/08 11:45:42;;;;;;;;;;;;;;;;;;4976779;28;20009;-83
2021/05/08 11:48:08;;;;;;;;;;;;;;;;;;4971324;28;19921;-83
2021/05/08 11:50:33;;;;;;;;;;;;;;;;;;4970831;28;19919;-84
2021/05/08 11:52:59;;;;;;;;;;;;;;;;;;4973086;28;20406;-83
2021/05/08 11:55:27;;;;;;;;;;;;;;;;;;4969469;28;19914;-83
2021/05/08 11:57:59;;;;;;;;;;;;;;;;;;4978190;28;20173;-82
2021/05/08 12:00:25;;;;;;;;;;;;;;;;;;4975705;28;19915;-83
2021/05/08 12:02:51;;;;;;;;;;;;;;;;;;4992095;28;20359;-82
2021/05/08 12:05:17;;;;;;;;;;;;;;;;;;4987900;28;19958;-82
2021/05/08 12:07:43;;;;;;;;;;;;;;;;;;4972591;28;19925;-82
2021/05/08 12:10:09;;;;;;;;;;;;;;;;;;4986609;28;19927;-81
2021/05/08 12:12:35;;;;;;;;;;;;;;;;;;4970080;28;19914;-81
2021/05/08 12:15:01;;;;;;;;;;;;;;;;;;4986797;28;19919;-82
2021/05/08 12:17:26;;;;;;;;;;;;;;;;;;4988401;28;19914;-83
2021/05/08 12:19:54;;;;;;;;;;;;;;;;;;4974291;28;20001;-82
2021/05/08 12:22:19;;;;;;;;;;;;;;;;;;4972415;28;20408;-82
2021/05/08 12:24:45;;;;;;;;;;;;;;;;;;4975301;28;19966;-83
2021/05/08 12:27:11;;;;;;;;;;;;;;;;;;4962006;28;19918;-82
2021/05/08 12:29:37;;;;;;;;;;;;;;;;;;4962793;28;19951;-82
2021/05/08 12:32:03;;;;;;;;;;;;;;;;;;5004082;28;20020;-83
2021/05/08 12:34:29;;;;;;;;;;;;;;;;;;4995997;28;19917;-84
2021/05/08 12:36:55;;;;;;;;;;;;;;;;;;4998024;28;20278;-82
2021/05/08 12:39:21;;;;;;;;;;;;;;;;;;4998405;28;20453;-82
2021/05/08 12:41:47;;;;;;;;;;;;;;;;;;4993095;28;19993;-83
2021/05/08 12:44:13;;;;;;;;;;;;;;;;;;4997035;28;20281;-80
2021/05/08 12:46:38;;;;;;;;;;;;;;;;;;4993610;28;19918;-82
2021/05/08 12:49:04;;;;;;;;;;;;;;;;;;5003140;28;20008;-83
2021/05/08 12:51:30;;;;;;;;;;;;;;;;;;5001340;28;19973;-83
2021/05/08 12:53:56;;;;;;;;;;;;;;;;;;4999832;28;19918;-83
2021/05/08 12:56:22;;;;;;;;;;;;;;;;;;5000928;28;19924;-85
2021/05/08 12:58:48;;;;;;;;;;;;;;;;;;4998870;28;19913;-82
2021/05/08 13:01:14;;;;;;;;;;;;;;;;;;5015305;28;20003;-82
2021/05/08 13:03:40;;;;;;;;;;;;;;;;;;4996418;28;20310;-83
2021/05/08 13:06:09;;;;;;;;;;;;;;;;;;4980541;28;19917;-83
2021/05/08 13:08:34;;;;;;;;;;;;;;;;;;4990022;28;19914;-82
2021/05/08 13:13:36;;;;;;;;;;;;;;;;;;5838089;22;20191;-82
2021/05/08 13:16:02;;;;;;;;;;;;;;;;;;5003761;28;19932;-83
2021/05/08 13:18:28;;;;;;;;;;;;;;;;;;5012654;28;19924;-82
2021/05/08 13:20:54;;;;;;;;;;;;;;;;;;5020801;28;19921;-82
2021/05/08 13:23:20;;;;;;;;;;;;;;;;;;5014468;28;19914;-83
2021/05/08 13:25:46;;;;;;;;;;;;;;;;;;5000272;28;20389;-84
2021/05/08 13:28:12;;;;;;;;;;;;;;;;;;5005910;28;19913;-83
2021/05/08 13:30:38;;;;;;;;;;;;;;;;;;4987838;28;20208;-84
2021/05/08 13:33:04;;;;;;;;;;;;;;;;;;4991681;28;20065;-81
2021/05/08 13:35:30;;;;;;;;;;;;;;;;;;4992082;28;20012;-83
2021/05/08 13:37:57;;;;;;;;;;;;;;;;;;4998932;28;20484;-84
2021/05/08 13:40:22;;;;;;;;;;;;;;;;;;4990297;28;20350;-84
2021/05/08 13:42:48;;;;;;;;;;;;;;;;;;5010081;28;20447;-85
2021/05/08 13:45:14;;;;;;;;;;;;;;;;;;4989472;28;19920;-83
2021/05/08 13:47:40;;;;;;;;;;;;;;;;;;4987991;28;19922;-83
2021/05/08 13:50:06;;;;;;;;;;;;;;;;;;5005315;28;19917;-85
2021/05/08 13:52:32;;;;;;;;;;;;;;;;;;4985268;28;19914;-83
2021/05/08 13:54:58;;;;;;;;;;;;;;;;;;4991832;28;20404;-83
2021/05/08 13:57:24;;;;;;;;;;;;;;;;;;4994432;28;19986;-83
2021/05/08 13:59:50;;;;;;;;;;;;;;;;;;4992660;28;19914;-83
2021/05/08 14:02:16;;;;;;;;;;;;;;;;;;4995590;28;19948;-84
2021/05/08 14:04:41;;;;;;;;;;;;;;;;;;4989553;28;19969;-84
2021/05/08 14:07:07;;;;;;;;;;;;;;;;;;4999869;28;19913;-83
2021/05/08 14:09:33;;;;;;;;;;;;;;;;;;4992716;28;19917;-84
2021/05/08 14:11:59;;;;;;;;;;;;;;;;;;5012006;28;19914;-86
2021/05/08 14:14:25;;;;;;;;;;;;;;;;;;4988291;28;19918;-83
2021/05/08 14:16:51;;;;;;;;;;;;;;;;;;5000940;28;19913;-83
2021/05/08 14:19:17;;;;;;;;;;;;;;;;;;4988315;28;19964;-84
2021/05/08 14:21:43;;;;;;;;;;;;;;;;;;4990406;28;19918;-87
2021/05/08 14:24:09;;;;;;;;;;;;;;;;;;4998173;28;19918;-83
2021/05/08 14:26:35;;;;;;;;;;;;;;;;;;4992181;28;19915;-84
2021/05/08 14:29:01;;;;;;;;;;;;;;;;;;4987800;28;19975;-84
2021/05/08 14:31:29;;;;;;;;;;;;;;;;;;5006808;28;20353;-83
2021/05/08 14:33:57;;;;;;;;;;;;;;;;;;4992042;28;19949;-84
2021/05/08 15:28:31;;;;;;;;;;;;;;;;;;5049718;28;19925;-80
2021/05/08 15:30:57;;;;;;;;;;;;;;;;;;5040449;28;20164;-79
2021/05/08 15:34:19;;;;;;;;;;;;;;;;;;5056596;27;20651;-61
2021/05/08 15:36:45;;;;;;;;;;;;;;;;;;4952379;28;75777;-64
